sensor_id;sensor_type;location;lat;lon;timestamp;temperature;humidity
49821;DHT22;36893;52.520;13.450;2023-06-19T00:07:57;26.50;65.80
49821;DHT22;36893;52.520;13.450;2023-06-19T00:17:58;26.50;65.80
49821;DHT22;36893;52.520;13.450;2023-06-19T00:27:59;26.50;65.60
49821;DHT22;36893;52.520;13.450;2023-06-19T00:38:00;26.50;65.60
49821;DHT22;36893;52.520;13.450;2023-06-19T00:48:01;26.60;65.70
49821;DHT22;36893;52.520;13.450;2023-06-19T00:58:02;26.50;65.60
49821;DHT22;36893;52.520;13.450;2023-06-19T01:08:22;26.50;65.60
49821;DHT22;36893;52.520;13.450;2023-06-19T01:18:27;26.60;65.70
49821;DHT22;36893;52.520;13.450;2023-06-19T01:28:29;26.50;65.50
49821;DHT22;36893;52.520;13.450;2023-06-19T01:38:31;26.60;65.50
49821;DHT22;36893;52.520;13.450;2023-06-19T01:48:32;26.60;65.40
49821;DHT22;36893;52.520;13.450;2023-06-19T01:58:32;26.60;65.40
49821;DHT22;36893;52.520;13.450;2023-06-19T02:08:33;26.50;65.30
49821;DHT22;36893;52.520;13.450;2023-06-19T02:18:33;26.60;65.30
49821;DHT22;36893;52.520;13.450;2023-06-19T02:28:34;26.60;65.30
49821;DHT22;36893;52.520;13.450;2023-06-19T02:38:35;26.60;65.20
49821;DHT22;36893;52.520;13.450;2023-06-19T02:48:36;26.60;65.20
49821;DHT22;36893;52.520;13.450;2023-06-19T02:58:36;26.60;65.20
49821;DHT22;36893;52.520;13.450;2023-06-19T03:08:37;26.60;65.20
49821;DHT22;36893;52.520;13.450;2023-06-19T03:18:38;26.60;65.10
49821;DHT22;36893;52.520;13.450;2023-06-19T03:28:39;26.60;65.00
49821;DHT22;36893;52.520;13.450;2023-06-19T03:38:39;26.60;65.00
49821;DHT22;36893;52.520;13.450;2023-06-19T03:48:40;26.60;65.00
49821;DHT22;36893;52.520;13.450;2023-06-19T03:58:40;26.60;64.90
49821;DHT22;36893;52.520;13.450;2023-06-19T04:08:41;26.60;64.90
49821;DHT22;36893;52.520;13.450;2023-06-19T04:18:42;26.60;64.80
49821;DHT22;36893;52.520;13.450;2023-06-19T04:28:42;26.60;64.80
49821;DHT22;36893;52.520;13.450;2023-06-19T04:38:45;26.60;64.80
49821;DHT22;36893;52.520;13.450;2023-06-19T04:48:46;26.60;64.70
49821;DHT22;36893;52.520;13.450;2023-06-19T04:58:50;26.70;64.70
49821;DHT22;36893;52.520;13.450;2023-06-19T05:08:51;26.60;64.60
49821;DHT22;36893;52.520;13.450;2023-06-19T05:18:52;26.70;64.70
49821;DHT22;36893;52.520;13.450;2023-06-19T05:28:53;26.70;64.60
49821;DHT22;36893;52.520;13.450;2023-06-19T05:38:54;26.70;64.50
49821;DHT22;36893;52.520;13.450;2023-06-19T05:48:54;26.70;64.50
49821;DHT22;36893;52.520;13.450;2023-06-19T05:58:55;26.70;64.60
49821;DHT22;36893;52.520;13.450;2023-06-19T06:08:55;26.70;64.50
49821;DHT22;36893;52.520;13.450;2023-06-19T06:18:56;26.60;64.70
49821;DHT22;36893;52.520;13.450;2023-06-19T06:28:57;26.20;65.20
49821;DHT22;36893;52.520;13.450;2023-06-19T06:38:57;25.80;65.70
49821;DHT22;36893;52.520;13.450;2023-06-19T06:48:58;25.80;65.90
49821;DHT22;36893;52.520;13.450;2023-06-19T06:58:59;25.70;66.00
49821;DHT22;36893;52.520;13.450;2023-06-19T07:08:59;25.70;66.10
49821;DHT22;36893;52.520;13.450;2023-06-19T07:19:00;25.80;66.10
49821;DHT22;36893;52.520;13.450;2023-06-19T07:29:01;25.80;66.00
49821;DHT22;36893;52.520;13.450;2023-06-19T07:39:02;26.00;65.80
49821;DHT22;36893;52.520;13.450;2023-06-19T07:49:03;26.10;65.70
49821;DHT22;36893;52.520;13.450;2023-06-19T07:59:03;26.20;65.80
49821;DHT22;36893;52.520;13.450;2023-06-19T08:09:04;26.20;65.80
49821;DHT22;36893;52.520;13.450;2023-06-19T08:19:04;26.20;65.70
49821;DHT22;36893;52.520;13.450;2023-06-19T08:29:05;26.30;65.80
49821;DHT22;36893;52.520;13.450;2023-06-19T08:39:06;26.30;65.80
49821;DHT22;36893;52.520;13.450;2023-06-19T08:49:08;26.40;65.80
49821;DHT22;36893;52.520;13.450;2023-06-19T08:59:13;26.40;65.80
49821;DHT22;36893;52.520;13.450;2023-06-19T09:09:16;26.40;65.80
49821;DHT22;36893;52.520;13.450;2023-06-19T09:19:20;26.40;65.90
49821;DHT22;36893;52.520;13.450;2023-06-19T09:29:21;26.50;65.80
49821;DHT22;36893;52.520;13.450;2023-06-19T09:39:25;26.50;65.60
49821;DHT22;36893;52.520;13.450;2023-06-19T09:49:28;26.50;65.60
49821;DHT22;36893;52.520;13.450;2023-06-19T09:59:32;26.50;65.80
49821;DHT22;36893;52.520;13.450;2023-06-19T10:09:33;26.50;65.80
49821;DHT22;36893;52.520;13.450;2023-06-19T10:19:34;26.50;65.90
49821;DHT22;36893;52.520;13.450;2023-06-19T10:29:39;26.50;65.90
49821;DHT22;36893;52.520;13.450;2023-06-19T10:39:40;26.50;65.90
49821;DHT22;36893;52.520;13.450;2023-06-19T10:49:41;26.60;66.00
49821;DHT22;36893;52.520;13.450;2023-06-19T10:59:42;26.60;66.00
49821;DHT22;36893;52.520;13.450;2023-06-19T11:09:42;26.70;66.00
49821;DHT22;36893;52.520;13.450;2023-06-19T11:19:43;26.70;66.00
49821;DHT22;36893;52.520;13.450;2023-06-19T11:29:44;26.80;66.10
49821;DHT22;36893;52.520;13.450;2023-06-19T11:39:47;26.80;66.90
49821;DHT22;36893;52.520;13.450;2023-06-19T11:49:50;26.80;66.20
49821;DHT22;36893;52.520;13.450;2023-06-19T11:59:51;26.80;66.40
49821;DHT22;36893;52.520;13.450;2023-06-19T12:09:52;26.80;66.70
49821;DHT22;36893;52.520;13.450;2023-06-19T12:19:52;26.80;67.10
49821;DHT22;36893;52.520;13.450;2023-06-19T12:29:53;26.90;67.50
49821;DHT22;36893;52.520;13.450;2023-06-19T12:39:54;26.90;67.70
49821;DHT22;36893;52.520;13.450;2023-06-19T12:49:54;27.00;67.70
49821;DHT22;36893;52.520;13.450;2023-06-19T12:59:55;27.00;67.70
49821;DHT22;36893;52.520;13.450;2023-06-19T13:09:56;27.00;68.60
49821;DHT22;36893;52.520;13.450;2023-06-19T13:19:56;27.00;67.80
49821;DHT22;36893;52.520;13.450;2023-06-19T13:29:59;27.00;67.90
49821;DHT22;36893;52.520;13.450;2023-06-19T13:40:00;27.00;67.90
49821;DHT22;36893;52.520;13.450;2023-06-19T13:50:01;27.00;67.80
49821;DHT22;36893;52.520;13.450;2023-06-19T14:00:02;27.00;67.90
49821;DHT22;36893;52.520;13.450;2023-06-19T14:10:04;27.00;67.90
49821;DHT22;36893;52.520;13.450;2023-06-19T14:20:05;27.10;67.90
49821;DHT22;36893;52.520;13.450;2023-06-19T14:30:07;27.10;67.90
49821;DHT22;36893;52.520;13.450;2023-06-19T14:40:08;27.10;67.90
49821;DHT22;36893;52.520;13.450;2023-06-19T14:50:09;27.10;67.90
49821;DHT22;36893;52.520;13.450;2023-06-19T15:00:11;27.10;67.90
49821;DHT22;36893;52.520;13.450;2023-06-19T15:10:11;27.20;68.10
49821;DHT22;36893;52.520;13.450;2023-06-19T15:20:12;27.20;68.10
49821;DHT22;36893;52.520;13.450;2023-06-19T15:30:13;27.20;68.10
49821;DHT22;36893;52.520;13.450;2023-06-19T15:40:14;27.20;68.30
49821;DHT22;36893;52.520;13.450;2023-06-19T15:50:15;27.20;68.20
49821;DHT22;36893;52.520;13.450;2023-06-19T16:00:16;27.30;68.30
49821;DHT22;36893;52.520;13.450;2023-06-19T16:10:17;27.20;68.10
49821;DHT22;36893;52.520;13.450;2023-06-19T16:20:17;27.30;68.20
49821;DHT22;36893;52.520;13.450;2023-06-19T16:30:18;27.30;68.10
49821;DHT22;36893;52.520;13.450;2023-06-19T16:40:20;27.30;68.00
49821;DHT22;36893;52.520;13.450;2023-06-19T16:50:21;27.30;67.90
49821;DHT22;36893;52.520;13.450;2023-06-19T17:00:22;27.30;67.90
49821;DHT22;36893;52.520;13.450;2023-06-19T17:10:23;27.40;67.90
49821;DHT22;36893;52.520;13.450;2023-06-19T17:20:23;27.40;67.80
49821;DHT22;36893;52.520;13.450;2023-06-19T17:30:24;27.40;68.60
49821;DHT22;36893;52.520;13.450;2023-06-19T17:40:25;27.40;67.70
49821;DHT22;36893;52.520;13.450;2023-06-19T17:50:25;27.40;67.60
49821;DHT22;36893;52.520;13.450;2023-06-19T18:00:27;27.40;67.60
49821;DHT22;36893;52.520;13.450;2023-06-19T18:10:29;27.40;67.50
49821;DHT22;36893;52.520;13.450;2023-06-19T18:20:29;27.40;67.50
49821;DHT22;36893;52.520;13.450;2023-06-19T18:30:30;27.50;67.50
49821;DHT22;36893;52.520;13.450;2023-06-19T18:40:31;27.50;67.40
49821;DHT22;36893;52.520;13.450;2023-06-19T18:50:31;27.50;67.40
49821;DHT22;36893;52.520;13.450;2023-06-19T19:00:32;27.50;67.30
49821;DHT22;36893;52.520;13.450;2023-06-19T19:10:32;27.50;67.20
49821;DHT22;36893;52.520;13.450;2023-06-19T19:20:33;27.50;68.00
49821;DHT22;36893;52.520;13.450;2023-06-19T19:30:34;27.50;67.10
49821;DHT22;36893;52.520;13.450;2023-06-19T19:40:34;27.50;67.80
49821;DHT22;36893;52.520;13.450;2023-06-19T19:50:35;27.60;67.10
49821;DHT22;36893;52.520;13.450;2023-06-19T20:00:36;27.60;67.00
49821;DHT22;36893;52.520;13.450;2023-06-19T20:10:36;27.60;66.90
49821;DHT22;36893;52.520;13.450;2023-06-19T20:20:37;27.60;66.80
49821;DHT22;36893;52.520;13.450;2023-06-19T20:30:38;27.60;66.80
49821;DHT22;36893;52.520;13.450;2023-06-19T20:40:39;27.60;66.80
49821;DHT22;36893;52.520;13.450;2023-06-19T20:50:39;27.60;66.70
49821;DHT22;36893;52.520;13.450;2023-06-19T21:00:40;27.60;66.70
49821;DHT22;36893;52.520;13.450;2023-06-19T21:10:44;27.60;66.60
49821;DHT22;36893;52.520;13.450;2023-06-19T21:20:44;27.60;66.60
49821;DHT22;36893;52.520;13.450;2023-06-19T21:30:45;27.60;66.40
49821;DHT22;36893;52.520;13.450;2023-06-19T21:40:46;27.60;66.40
49821;DHT22;36893;52.520;13.450;2023-06-19T21:50:46;27.60;66.40
49821;DHT22;36893;52.520;13.450;2023-06-19T22:00:47;27.70;66.50
49821;DHT22;36893;52.520;13.450;2023-06-19T22:10:48;27.70;66.40
49821;DHT22;36893;52.520;13.450;2023-06-19T22:20:48;27.70;66.20
49821;DHT22;36893;52.520;13.450;2023-06-19T22:30:49;27.70;66.20
49821;DHT22;36893;52.520;13.450;2023-06-19T22:40:50;27.70;66.10
49821;DHT22;36893;52.520;13.450;2023-06-19T22:50:50;27.70;66.00
49821;DHT22;36893;52.520;13.450;2023-06-19T23:00:52;27.70;66.00
49821;DHT22;36893;52.520;13.450;2023-06-19T23:10:56;27.70;65.90
49821;DHT22;36893;52.520;13.450;2023-06-19T23:20:57;27.70;65.90
49821;DHT22;36893;52.520;13.450;2023-06-19T23:30:58;27.70;65.80
49821;DHT22;36893;52.520;13.450;2023-06-19T23:40:59;27.70;65.70
49821;DHT22;36893;52.520;13.450;2023-06-19T23:51:00;27.70;65.70
